»·PEaware :: N7436R KGCN-KHII

N7436R :: KGCN-KHII

FLIGHT INFORMATION

Flight Status: Arrived
Operator: Privately registered:
United States
More flights under this callsign
Pilot: Gopalakrishna S. (22834)
Aircraft: BEECH AIRCRAFT SUPER KING AIR COMMUTER
(BE20)
More flights by this aircraft type
Origin: KGCN Grand Canyon Natl Park
United States
Destination: KHII Lake Havasu City
United States
More flights between these airports :: More routes between these airports
Route: WOTRO
File this flight plan on PilotEdge
Remarks:
Altitude:
(Current/Filed)
10,000ft
Speed:
(Current/Filed)
200kts
Departed: 11-Jan-20 08:20 PM
Arrived: 11-Jan-20 09:02 PM
Distance/Time
Traveled:
136nm/0:42
Distance/Time
To Go:
Arrived

Flight Plot

Page will automatically refresh every two minutes.


Map Options




Map Legend


Flown Route
Filed Route
Departure Airport
Arrival Airport
Navaid (VOR, NDB)
Fix

Horizontal Profiles

Position Reports

Time Latitude Longitude Heading Altitude Ground
Speed
11-Jan-20 20:07 35.955893 -112.141160 221 6612ft 0kts
11-Jan-20 20:08 35.955893 -112.141160 221 6612ft 0kts
11-Jan-20 20:09 35.955893 -112.141160 221 6612ft 0kts
11-Jan-20 20:10 35.955893 -112.141160 221 6612ft 0kts
11-Jan-20 20:11 35.955893 -112.141160 221 6612ft 0kts
11-Jan-20 20:12 35.955893 -112.141160 221 6612ft 0kts
11-Jan-20 20:13 35.955893 -112.141160 221 6612ft 0kts
11-Jan-20 20:14 35.955893 -112.141160 221 6612ft 0kts
11-Jan-20 20:15 35.955893 -112.141160 221 6612ft 0kts
11-Jan-20 20:16 35.957543 -112.139731 40 6616ft 21kts
11-Jan-20 20:17 35.961372 -112.135967 298 6624ft 0kts
11-Jan-20 20:18 35.960928 -112.137913 221 6621ft 36kts
11-Jan-20 20:19 35.926328 -112.174324 217 7781ft 221kts
11-Jan-20 20:20 35.871147 -112.218878 210 9612ft 247kts
11-Jan-20 20:21 35.809347 -112.263667 209 10092ft 263kts
11-Jan-20 20:22 35.746665 -112.308571 209 10093ft 259kts
11-Jan-20 20:23 35.684579 -112.352941 209 10093ft 258kts
11-Jan-20 20:24 35.622630 -112.397149 209 10111ft 258kts
11-Jan-20 20:25 35.570897 -112.455494 238 10113ft 259kts
11-Jan-20 20:26 35.534858 -112.532167 240 10103ft 260kts
11-Jan-20 20:27 35.499451 -112.609623 240 10103ft 260kts
11-Jan-20 20:28 35.464182 -112.686808 240 10102ft 260kts
11-Jan-20 20:29 35.429448 -112.762664 240 10102ft 260kts
11-Jan-20 20:30 35.393179 -112.841690 240 10102ft 260kts
11-Jan-20 20:31 35.357767 -112.918674 240 10102ft 260kts
11-Jan-20 20:32 35.322293 -112.995618 240 10102ft 260kts
11-Jan-20 20:33 35.286758 -113.072522 240 10110ft 259kts
11-Jan-20 20:34 35.251075 -113.149572 240 10112ft 260kts
11-Jan-20 20:35 35.215399 -113.226436 240 10112ft 260kts
11-Jan-20 20:36 35.179757 -113.303053 240 10112ft 260kts
11-Jan-20 20:37 35.150980 -113.384288 248 10112ft 260kts
11-Jan-20 20:38 35.123343 -113.465675 247 10112ft 260kts
11-Jan-20 20:39 35.095256 -113.546990 247 10112ft 260kts
11-Jan-20 20:40 35.066930 -113.628676 247 10112ft 260kts
11-Jan-20 20:41 35.038707 -113.709845 246 10111ft 260kts
11-Jan-20 20:42 35.010296 -113.791336 246 10111ft 260kts
11-Jan-20 20:43 34.982008 -113.872266 246 10111ft 260kts
11-Jan-20 20:44 34.953475 -113.953439 246 10112ft 260kts
11-Jan-20 20:45 34.926385 -114.026763 245 9986ft 215kts
11-Jan-20 20:46 34.900620 -114.099336 247 8150ft 233kts
11-Jan-20 20:47 34.877940 -114.163607 248 7290ft 215kts
11-Jan-20 20:48 34.856015 -114.231861 251 6173ft 197kts
11-Jan-20 20:49 34.838261 -114.288508 250 6158ft 165kts
11-Jan-20 20:50 34.817108 -114.349965 245 6170ft 223kts
11-Jan-20 20:51 34.788560 -114.419905 244 6163ft 232kts
11-Jan-20 20:52 34.761945 -114.487943 269 6139ft 204kts
11-Jan-20 20:53 34.783511 -114.544170 325 6110ft 185kts
11-Jan-20 20:55 34.826196 -114.540442 90 4044ft 177kts
11-Jan-20 20:56 34.807016 -114.494848 150 4037ft 165kts
11-Jan-20 20:57 34.762923 -114.472478 156 3710ft 182kts
11-Jan-20 20:58 34.716715 -114.446905 153 3275ft 169kts
11-Jan-20 20:59 34.676333 -114.423831 153 3280ft 154kts
11-Jan-20 21:00 34.635043 -114.399977 153 2531ft 185kts
11-Jan-20 21:01 34.601821 -114.380024 147 1330ft 110kts
11-Jan-20 21:02 34.585742 -114.368823 40 762ft 13kts

Navigation Log

Ident Type
Flight plan parsing failed, navigation log unavailable